createdAt,value
2019-02-14T00:05:26.633Z,12.63
2019-02-14T00:11:31.199Z,13.87
2019-02-14T00:17:36.344Z,13.13
2019-02-14T00:23:41.048Z,12.63
2019-02-14T00:29:45.661Z,13.20
2019-02-14T00:35:50.224Z,13.37
2019-02-14T00:41:55.867Z,13.50
2019-02-14T00:48:00.441Z,12.90
2019-02-14T00:54:05.630Z,14.43
2019-02-14T01:00:12.081Z,13.37
2019-02-14T01:06:16.637Z,12.50
2019-02-14T01:12:23.687Z,12.50
2019-02-14T01:18:28.327Z,12.40
2019-02-14T01:24:32.963Z,12.80
2019-02-14T01:30:37.505Z,12.70
2019-02-14T01:36:42.083Z,13.50
2019-02-14T01:42:46.621Z,12.47
2019-02-14T01:48:51.182Z,11.77
2019-02-14T01:54:55.742Z,13.00
2019-02-14T02:01:00.297Z,11.67
2019-02-14T02:07:04.913Z,12.33
2019-02-14T02:13:09.602Z,16.50
2019-02-14T02:19:14.162Z,13.37
2019-02-14T02:25:18.717Z,14.63
2019-02-14T02:31:23.289Z,20.70
2019-02-14T02:37:27.847Z,16.17
2019-02-14T02:43:32.411Z,14.30
2019-02-14T02:49:36.952Z,13.30
2019-02-14T02:55:42.323Z,12.10
2019-02-14T03:01:46.873Z,12.77
2019-02-14T03:07:51.425Z,12.27
2019-02-14T03:13:55.974Z,11.80
2019-02-14T03:20:00.540Z,12.00
2019-02-14T03:26:07.560Z,14.50
2019-02-14T03:32:12.123Z,13.90
2019-02-14T03:38:16.778Z,15.03
2019-02-14T03:44:21.316Z,14.27
2019-02-14T03:50:25.954Z,14.53
2019-02-14T03:56:30.578Z,16.07
2019-02-14T04:02:35.134Z,15.10
2019-02-14T04:08:39.689Z,14.37
2019-02-14T04:14:44.247Z,16.33
2019-02-14T04:20:48.796Z,13.70
2019-02-14T04:26:56.327Z,13.83
2019-02-14T04:33:01.190Z,14.20
2019-02-14T04:39:07.074Z,13.67
2019-02-14T04:45:13.555Z,14.27
2019-02-14T04:51:18.076Z,14.37
2019-02-14T04:57:24.109Z,15.50
2019-02-14T05:03:28.990Z,16.83
2019-02-14T05:09:33.578Z,15.70
2019-02-14T05:15:38.129Z,15.63
2019-02-14T05:21:42.760Z,17.00
2019-02-14T05:27:47.315Z,17.77
2019-02-14T05:33:51.898Z,16.70
2019-02-14T05:39:56.452Z,15.57
2019-02-14T05:46:00.998Z,17.13
2019-02-14T05:52:05.629Z,18.53
2019-02-14T05:58:10.181Z,16.00
2019-02-14T06:04:14.745Z,17.37
2019-02-14T06:10:19.292Z,19.10
2019-02-14T06:16:24.471Z,16.20
2019-02-14T06:22:29.028Z,14.70
2019-02-14T06:28:33.652Z,17.17
2019-02-14T06:34:38.207Z,19.17
2019-02-14T06:40:42.773Z,17.87
2019-02-14T06:46:47.402Z,17.60
2019-02-14T06:52:51.965Z,16.90
2019-02-14T06:58:56.541Z,18.20
2019-02-14T07:05:03.133Z,17.40
2019-02-14T07:11:07.675Z,17.10
2019-02-14T07:17:12.241Z,14.97
2019-02-14T07:23:16.830Z,14.33
2019-02-14T07:29:21.451Z,14.77
2019-02-14T07:35:26.067Z,16.53
2019-02-14T07:41:30.618Z,15.83
2019-02-14T07:47:37.267Z,15.03
2019-02-14T07:53:45.541Z,13.43
2019-02-14T07:59:50.133Z,14.60
2019-02-14T08:05:55.298Z,12.83
2019-02-14T08:11:59.860Z,14.40
2019-02-14T08:18:04.679Z,13.13
2019-02-14T08:24:09.241Z,15.67
2019-02-14T08:30:19.387Z,13.00
2019-02-14T08:36:26.502Z,11.17
2019-02-14T08:42:31.053Z,13.57
2019-02-14T08:48:35.601Z,14.77
2019-02-14T08:54:40.198Z,14.77
2019-02-14T09:00:44.752Z,13.40
2019-02-14T09:06:49.301Z,13.60
2019-02-14T09:12:53.865Z,12.40
2019-02-14T09:18:58.434Z,12.27
2019-02-14T09:25:02.972Z,9.83
2019-02-14T09:31:07.530Z,11.60
2019-02-14T09:37:12.098Z,10.83
2019-02-14T09:43:16.697Z,10.60
2019-02-14T09:49:21.245Z,8.90
2019-02-14T09:55:26.489Z,8.17
2019-02-14T10:01:31.032Z,9.77
2019-02-14T10:07:35.610Z,9.70
2019-02-14T10:13:40.202Z,8.37
2019-02-14T10:19:44.750Z,8.27
2019-02-14T10:25:49.311Z,8.90
2019-02-14T10:31:53.896Z,9.10
2019-02-14T10:37:58.421Z,9.67
2019-02-14T10:44:02.993Z,9.10
2019-02-14T10:50:10.425Z,8.73
2019-02-14T10:56:15.054Z,7.73
2019-02-14T11:02:19.679Z,7.20
2019-02-14T11:08:31.386Z,7.83
2019-02-14T11:14:31.352Z,7.43
2019-02-14T11:20:35.917Z,8.17
2019-02-14T11:26:40.537Z,8.07
2019-02-14T11:32:45.098Z,8.27
2019-02-14T11:38:49.657Z,8.13
2019-02-14T11:44:54.205Z,6.43
2019-02-14T11:50:58.747Z,6.10
2019-02-14T11:57:04.052Z,6.23
2019-02-14T12:03:08.922Z,6.47
2019-02-14T12:09:13.809Z,6.90
2019-02-14T12:15:18.660Z,7.57
2019-02-14T12:21:23.218Z,7.00
2019-02-14T12:27:27.777Z,7.03
2019-02-14T12:33:32.375Z,7.33
2019-02-14T12:39:37.008Z,6.87
2019-02-14T12:45:41.567Z,5.53
2019-02-14T12:51:47.928Z,5.97
2019-02-14T12:57:52.813Z,5.70
2019-02-14T13:03:57.372Z,5.57
2019-02-14T13:10:01.940Z,5.77
2019-02-14T13:16:06.622Z,5.30
2019-02-14T13:22:11.200Z,4.87
2019-02-14T13:28:15.825Z,4.90
2019-02-14T13:34:20.402Z,4.20
2019-02-14T13:40:25.046Z,3.97
2019-02-14T13:46:29.607Z,3.77
2019-02-14T13:52:36.166Z,3.70
2019-02-14T13:58:40.510Z,3.77
2019-02-14T14:04:45.068Z,3.50
2019-02-14T14:10:49.666Z,3.30
2019-02-14T14:16:56.213Z,3.83
2019-02-14T14:23:01.076Z,3.07
2019-02-14T14:29:05.778Z,3.43
2019-02-14T14:35:14.249Z,3.10
2019-02-14T14:41:19.150Z,2.53
2019-02-14T14:47:23.772Z,3.20
2019-02-14T14:53:28.322Z,2.30
2019-02-14T14:59:32.884Z,2.83
2019-02-14T15:05:37.521Z,2.87
2019-02-14T15:11:42.081Z,2.50
2019-02-14T15:17:47.508Z,2.73
2019-02-14T15:23:52.078Z,1.87
2019-02-14T15:29:56.624Z,2.57
2019-02-14T15:36:01.188Z,2.70
2019-02-14T15:42:05.775Z,2.20
2019-02-14T15:48:10.324Z,2.70
2019-02-14T15:54:14.903Z,3.40
2019-02-14T16:00:19.465Z,3.80
2019-02-14T16:06:28.336Z,3.23
2019-02-14T16:12:33.187Z,3.43
2019-02-14T16:18:37.728Z,3.60
2019-02-14T16:24:42.997Z,3.40
2019-02-14T16:30:47.610Z,3.70
2019-02-14T16:36:52.211Z,3.90
2019-02-14T16:42:56.872Z,3.10
2019-02-14T16:49:01.471Z,3.30
2019-02-14T16:55:07.743Z,5.53
2019-02-14T17:01:12.303Z,3.67
2019-02-14T17:07:16.924Z,3.93
2019-02-14T17:13:21.884Z,4.10
2019-02-14T17:19:26.404Z,3.90
2019-02-14T17:25:30.954Z,3.97
2019-02-14T17:31:35.680Z,5.60
2019-02-14T17:37:40.239Z,10.60
2019-02-14T17:43:44.786Z,5.70
2019-02-14T17:49:50.317Z,6.27
2019-02-14T17:55:54.873Z,6.80
2019-02-14T18:01:59.423Z,4.47
2019-02-14T18:08:04.114Z,4.10
2019-02-14T18:14:08.663Z,4.53
2019-02-14T18:20:13.221Z,3.70
2019-02-14T18:26:17.834Z,4.33
2019-02-14T18:32:22.518Z,4.70
2019-02-14T18:38:27.081Z,4.00
2019-02-14T18:44:31.643Z,4.63
2019-02-14T18:50:36.185Z,4.60
2019-02-14T18:56:40.732Z,4.30
2019-02-14T19:02:45.455Z,4.60
2019-02-14T19:08:50.339Z,4.93
2019-02-14T19:14:55.664Z,4.60
2019-02-14T19:21:00.282Z,5.20
2019-02-14T19:27:04.907Z,5.10
2019-02-14T19:33:09.593Z,4.50
2019-02-14T19:39:14.122Z,4.20
2019-02-14T19:45:18.737Z,3.40
2019-02-14T19:51:23.377Z,2.90
2019-02-14T19:57:27.914Z,3.17
2019-02-14T20:03:32.534Z,3.03
2019-02-14T20:09:37.110Z,3.27
2019-02-14T20:15:41.796Z,3.57
2019-02-14T20:21:46.408Z,4.20
2019-02-14T20:27:50.957Z,3.70
2019-02-14T20:33:58.122Z,3.10
2019-02-14T20:40:03.079Z,4.00
2019-02-14T20:46:07.706Z,3.30
2019-02-14T20:52:13.200Z,4.50
2019-02-14T20:58:18.119Z,3.77
2019-02-14T21:04:22.675Z,3.87
2019-02-14T21:10:27.854Z,4.50
2019-02-14T21:16:32.475Z,4.20
2019-02-14T21:22:37.032Z,4.00
2019-02-14T21:28:41.602Z,3.70
2019-02-14T21:34:47.364Z,3.37
2019-02-14T21:40:52.258Z,3.10
2019-02-14T21:46:56.819Z,3.47
2019-02-14T21:53:01.988Z,3.47
2019-02-14T21:59:06.536Z,3.63
2019-02-14T22:05:11.891Z,2.83
2019-02-14T22:11:16.541Z,3.20
2019-02-14T22:17:22.675Z,2.93
2019-02-14T22:23:27.411Z,5.57
2019-02-14T22:29:31.988Z,3.50
2019-02-14T22:35:36.614Z,3.93
2019-02-14T22:41:43.203Z,4.00
2019-02-14T22:47:47.456Z,3.07
2019-02-14T22:53:52.018Z,4.23
2019-02-14T22:59:56.583Z,4.00
2019-02-14T23:06:01.251Z,4.30
2019-02-14T23:12:06.003Z,4.30
2019-02-14T23:18:13.683Z,4.00
2019-02-14T23:24:18.579Z,3.07
2019-02-14T23:30:23.208Z,3.87
2019-02-14T23:36:27.793Z,3.47
2019-02-14T23:42:33.178Z,3.67
2019-02-14T23:48:37.807Z,2.50
2019-02-14T23:54:42.353Z,2.70
